Terminal Aerodrome Forecast
Issued by NWS Twin Cities, MN

Home | Current Version | Previous Version | Text Only | Print | Product List | Glossary Off
Versions: 1 2 3 4 5 6 7 8 9 10 11 12 13 14 15 16

000
FTUS43 KMPX 250239 AAA
TAFSTC
TAF AMD
KSTC 250239Z 2503/2524 30010KT P6SM SCT040 BKN070
      TEMPO 2503/2504 -SHRA
     FM250500 30010KT P6SM OVC020
     FM251600 31015G24KT P6SM BKN050=

USA.gov is the U.S. government's official web portal to all federal, state and local government web resources and services.